sensor_id;sensor_type;location;lat;lon;timestamp;P1;durP1;ratioP1;P2;durP2;ratioP2
22034;SDS011;11181;51.002;4.356;2022-07-12T00:02:12;3.07;;;2.77;;
22034;SDS011;11181;51.002;4.356;2022-07-12T00:04:38;3.80;;;3.20;;
22034;SDS011;11181;51.002;4.356;2022-07-12T00:07:07;4.03;;;3.63;;
22034;SDS011;11181;51.002;4.356;2022-07-12T00:09:34;4.03;;;2.90;;
22034;SDS011;11181;51.002;4.356;2022-07-12T00:12:00;4.87;;;2.97;;
22034;SDS011;11181;51.002;4.356;2022-07-12T00:14:27;3.20;;;2.90;;
22034;SDS011;11181;51.002;4.356;2022-07-12T00:16:54;3.60;;;3.30;;
22034;SDS011;11181;51.002;4.356;2022-07-12T00:19:21;4.67;;;3.60;;
22034;SDS011;11181;51.002;4.356;2022-07-12T00:21:48;5.10;;;3.43;;
22034;SDS011;11181;51.002;4.356;2022-07-12T00:24:17;3.80;;;3.40;;
22034;SDS011;11181;51.002;4.356;2022-07-12T00:26:44;4.07;;;3.00;;
22034;SDS011;11181;51.002;4.356;2022-07-12T00:29:11;4.33;;;3.50;;
22034;SDS011;11181;51.002;4.356;2022-07-12T00:31:38;3.80;;;3.37;;
22034;SDS011;11181;51.002;4.356;2022-07-12T00:34:05;3.47;;;3.17;;
22034;SDS011;11181;51.002;4.356;2022-07-12T00:36:32;3.40;;;3.00;;
22034;SDS011;11181;51.002;4.356;2022-07-12T00:38:59;3.93;;;3.53;;
22034;SDS011;11181;51.002;4.356;2022-07-12T00:41:27;4.00;;;3.20;;
22034;SDS011;11181;51.002;4.356;2022-07-12T00:43:54;4.10;;;3.70;;
22034;SDS011;11181;51.002;4.356;2022-07-12T00:46:22;3.97;;;3.33;;
22034;SDS011;11181;51.002;4.356;2022-07-12T00:48:49;4.40;;;3.10;;
22034;SDS011;11181;51.002;4.356;2022-07-12T00:51:17;3.17;;;2.83;;
22034;SDS011;11181;51.002;4.356;2022-07-12T00:53:44;3.67;;;2.90;;
22034;SDS011;11181;51.002;4.356;2022-07-12T00:56:12;3.00;;;2.70;;
22034;SDS011;11181;51.002;4.356;2022-07-12T00:58:41;3.53;;;3.23;;
22034;SDS011;11181;51.002;4.356;2022-07-12T01:01:09;3.53;;;3.23;;
22034;SDS011;11181;51.002;4.356;2022-07-12T01:03:36;3.23;;;2.93;;
22034;SDS011;11181;51.002;4.356;2022-07-12T01:06:03;3.50;;;2.93;;
22034;SDS011;11181;51.002;4.356;2022-07-12T01:08:31;3.00;;;2.80;;
22034;SDS011;11181;51.002;4.356;2022-07-12T01:10:59;5.30;;;3.13;;
22034;SDS011;11181;51.002;4.356;2022-07-12T01:13:27;2.90;;;2.63;;
22034;SDS011;11181;51.002;4.356;2022-07-12T01:15:56;2.77;;;2.57;;
22034;SDS011;11181;51.002;4.356;2022-07-12T01:18:23;3.73;;;3.27;;
22034;SDS011;11181;51.002;4.356;2022-07-12T01:20:52;3.57;;;3.23;;
22034;SDS011;11181;51.002;4.356;2022-07-12T01:23:21;3.50;;;3.20;;
22034;SDS011;11181;51.002;4.356;2022-07-12T01:25:48;3.03;;;2.70;;
22034;SDS011;11181;51.002;4.356;2022-07-12T01:28:15;3.93;;;3.53;;
22034;SDS011;11181;51.002;4.356;2022-07-12T01:30:42;4.03;;;3.30;;
22034;SDS011;11181;51.002;4.356;2022-07-12T01:33:10;3.40;;;2.93;;
22034;SDS011;11181;51.002;4.356;2022-07-12T01:35:37;3.43;;;3.13;;
22034;SDS011;11181;51.002;4.356;2022-07-12T01:38:05;3.20;;;2.90;;
22034;SDS011;11181;51.002;4.356;2022-07-12T01:40:34;4.10;;;3.70;;
22034;SDS011;11181;51.002;4.356;2022-07-12T01:43:01;3.23;;;2.93;;
22034;SDS011;11181;51.002;4.356;2022-07-12T01:45:29;6.87;;;3.80;;
22034;SDS011;11181;51.002;4.356;2022-07-12T01:47:56;12.97;;;4.17;;
22034;SDS011;11181;51.002;4.356;2022-07-12T01:50:23;4.17;;;3.30;;
22034;SDS011;11181;51.002;4.356;2022-07-12T01:52:51;4.33;;;3.93;;
22034;SDS011;11181;51.002;4.356;2022-07-12T01:55:18;3.60;;;3.30;;
22034;SDS011;11181;51.002;4.356;2022-07-12T01:57:46;4.77;;;3.57;;
22034;SDS011;11181;51.002;4.356;2022-07-12T02:00:13;3.63;;;3.10;;
22034;SDS011;11181;51.002;4.356;2022-07-12T02:02:42;3.20;;;2.90;;
22034;SDS011;11181;51.002;4.356;2022-07-12T02:05:11;3.27;;;2.97;;
22034;SDS011;11181;51.002;4.356;2022-07-12T02:07:39;3.43;;;2.97;;
22034;SDS011;11181;51.002;4.356;2022-07-12T02:10:07;3.87;;;2.83;;
22034;SDS011;11181;51.002;4.356;2022-07-12T02:12:34;3.50;;;3.20;;
22034;SDS011;11181;51.002;4.356;2022-07-12T02:15:03;3.30;;;3.00;;
22034;SDS011;11181;51.002;4.356;2022-07-12T02:17:31;3.40;;;3.10;;
22034;SDS011;11181;51.002;4.356;2022-07-12T02:19:58;3.90;;;3.30;;
22034;SDS011;11181;51.002;4.356;2022-07-12T02:22:25;4.40;;;3.50;;
22034;SDS011;11181;51.002;4.356;2022-07-12T02:24:52;3.30;;;2.87;;
22034;SDS011;11181;51.002;4.356;2022-07-12T02:27:19;4.83;;;3.27;;
22034;SDS011;11181;51.002;4.356;2022-07-12T02:29:46;3.97;;;3.27;;
22034;SDS011;11181;51.002;4.356;2022-07-12T02:32:14;3.73;;;3.03;;
22034;SDS011;11181;51.002;4.356;2022-07-12T02:34:41;2.90;;;2.60;;
22034;SDS011;11181;51.002;4.356;2022-07-12T02:37:08;3.70;;;2.70;;
22034;SDS011;11181;51.002;4.356;2022-07-12T02:39:35;3.23;;;2.93;;
22034;SDS011;11181;51.002;4.356;2022-07-12T02:42:02;5.90;;;3.23;;
22034;SDS011;11181;51.002;4.356;2022-07-12T02:44:30;2.93;;;2.73;;
22034;SDS011;11181;51.002;4.356;2022-07-12T02:46:57;3.57;;;2.77;;
22034;SDS011;11181;51.002;4.356;2022-07-12T02:49:26;3.43;;;3.13;;
22034;SDS011;11181;51.002;4.356;2022-07-12T02:51:53;3.40;;;3.10;;
22034;SDS011;11181;51.002;4.356;2022-07-12T02:54:20;3.93;;;3.53;;
22034;SDS011;11181;51.002;4.356;2022-07-12T02:56:47;3.90;;;3.60;;
22034;SDS011;11181;51.002;4.356;2022-07-12T02:59:14;5.53;;;3.37;;
22034;SDS011;11181;51.002;4.356;2022-07-12T03:01:41;3.73;;;3.33;;
22034;SDS011;11181;51.002;4.356;2022-07-12T03:04:07;3.73;;;3.43;;
22034;SDS011;11181;51.002;4.356;2022-07-12T03:06:36;5.57;;;3.10;;
22034;SDS011;11181;51.002;4.356;2022-07-12T03:09:03;3.60;;;3.23;;
22034;SDS011;11181;51.002;4.356;2022-07-12T03:11:30;3.60;;;3.03;;
22034;SDS011;11181;51.002;4.356;2022-07-12T03:13:57;5.40;;;3.30;;
22034;SDS011;11181;51.002;4.356;2022-07-12T03:16:24;4.13;;;3.73;;
22034;SDS011;11181;51.002;4.356;2022-07-12T03:18:51;5.80;;;3.57;;
22034;SDS011;11181;51.002;4.356;2022-07-12T03:21:18;3.27;;;2.90;;
22034;SDS011;11181;51.002;4.356;2022-07-12T03:23:46;3.53;;;3.17;;
22034;SDS011;11181;51.002;4.356;2022-07-12T03:26:14;3.83;;;3.17;;
22034;SDS011;11181;51.002;4.356;2022-07-12T03:28:41;3.73;;;3.43;;
22034;SDS011;11181;51.002;4.356;2022-07-12T03:31:09;3.30;;;3.00;;
22034;SDS011;11181;51.002;4.356;2022-07-12T03:33:36;3.73;;;3.43;;
22034;SDS011;11181;51.002;4.356;2022-07-12T03:36:03;3.73;;;3.33;;
22034;SDS011;11181;51.002;4.356;2022-07-12T03:38:31;4.30;;;3.90;;
22034;SDS011;11181;51.002;4.356;2022-07-12T03:41:00;4.50;;;3.40;;
22034;SDS011;11181;51.002;4.356;2022-07-12T03:43:27;6.80;;;3.17;;
22034;SDS011;11181;51.002;4.356;2022-07-12T03:45:54;3.17;;;2.87;;
22034;SDS011;11181;51.002;4.356;2022-07-12T03:48:21;3.07;;;2.77;;
22034;SDS011;11181;51.002;4.356;2022-07-12T03:50:47;3.27;;;2.97;;
22034;SDS011;11181;51.002;4.356;2022-07-12T03:53:15;3.67;;;3.37;;
22034;SDS011;11181;51.002;4.356;2022-07-12T03:55:42;3.67;;;3.37;;
22034;SDS011;11181;51.002;4.356;2022-07-12T03:58:11;3.83;;;3.50;;
22034;SDS011;11181;51.002;4.356;2022-07-12T04:00:38;4.47;;;3.73;;
22034;SDS011;11181;51.002;4.356;2022-07-12T04:03:05;4.63;;;3.40;;
22034;SDS011;11181;51.002;4.356;2022-07-12T04:05:32;6.30;;;3.90;;
22034;SDS011;11181;51.002;4.356;2022-07-12T04:07:59;4.17;;;3.17;;
22034;SDS011;11181;51.002;4.356;2022-07-12T04:10:27;4.70;;;3.80;;
22034;SDS011;11181;51.002;4.356;2022-07-12T04:12:56;7.63;;;4.20;;
22034;SDS011;11181;51.002;4.356;2022-07-12T04:15:26;5.73;;;3.33;;
22034;SDS011;11181;51.002;4.356;2022-07-12T04:17:53;4.20;;;3.27;;
22034;SDS011;11181;51.002;4.356;2022-07-12T04:20:20;5.10;;;3.50;;
22034;SDS011;11181;51.002;4.356;2022-07-12T04:22:47;4.67;;;3.40;;
22034;SDS011;11181;51.002;4.356;2022-07-12T04:25:14;4.47;;;3.47;;
22034;SDS011;11181;51.002;4.356;2022-07-12T04:27:41;3.83;;;3.10;;
22034;SDS011;11181;51.002;4.356;2022-07-12T04:30:08;4.53;;;3.47;;
22034;SDS011;11181;51.002;4.356;2022-07-12T04:32:37;3.83;;;3.10;;
22034;SDS011;11181;51.002;4.356;2022-07-12T04:35:04;6.73;;;4.27;;
22034;SDS011;11181;51.002;4.356;2022-07-12T04:37:32;4.73;;;4.00;;
22034;SDS011;11181;51.002;4.356;2022-07-12T04:39:59;4.10;;;3.70;;
22034;SDS011;11181;51.002;4.356;2022-07-12T04:42:26;6.53;;;4.00;;
22034;SDS011;11181;51.002;4.356;2022-07-12T04:44:53;3.33;;;3.03;;
22034;SDS011;11181;51.002;4.356;2022-07-12T04:47:20;3.40;;;3.10;;
22034;SDS011;11181;51.002;4.356;2022-07-12T04:49:48;4.87;;;3.73;;
22034;SDS011;11181;51.002;4.356;2022-07-12T04:52:15;5.53;;;4.00;;
22034;SDS011;11181;51.002;4.356;2022-07-12T04:54:42;4.73;;;3.50;;
22034;SDS011;11181;51.002;4.356;2022-07-12T04:57:09;5.47;;;3.40;;
22034;SDS011;11181;51.002;4.356;2022-07-12T04:59:36;4.00;;;3.60;;
22034;SDS011;11181;51.002;4.356;2022-07-12T05:02:03;4.47;;;4.00;;
22034;SDS011;11181;51.002;4.356;2022-07-12T05:04:31;6.40;;;4.20;;
22034;SDS011;11181;51.002;4.356;2022-07-12T05:06:59;7.10;;;4.37;;
22034;SDS011;11181;51.002;4.356;2022-07-12T05:09:26;5.80;;;4.87;;
22034;SDS011;11181;51.002;4.356;2022-07-12T05:11:53;5.83;;;4.40;;
22034;SDS011;11181;51.002;4.356;2022-07-12T05:14:20;5.13;;;4.53;;
22034;SDS011;11181;51.002;4.356;2022-07-12T05:16:47;4.63;;;3.97;;
22034;SDS011;11181;51.002;4.356;2022-07-12T05:19:14;6.57;;;4.20;;
22034;SDS011;11181;51.002;4.356;2022-07-12T05:21:41;7.60;;;4.67;;
22034;SDS011;11181;51.002;4.356;2022-07-12T05:24:09;4.60;;;4.20;;
22034;SDS011;11181;51.002;4.356;2022-07-12T05:26:36;4.10;;;3.70;;
22034;SDS011;11181;51.002;4.356;2022-07-12T05:29:03;6.23;;;4.43;;
22034;SDS011;11181;51.002;4.356;2022-07-12T05:31:30;5.13;;;3.77;;
22034;SDS011;11181;51.002;4.356;2022-07-12T05:33:57;7.57;;;4.60;;
22034;SDS011;11181;51.002;4.356;2022-07-12T05:36:24;6.53;;;4.90;;
22034;SDS011;11181;51.002;4.356;2022-07-12T05:38:51;6.53;;;5.17;;
22034;SDS011;11181;51.002;4.356;2022-07-12T05:41:20;6.63;;;4.43;;
22034;SDS011;11181;51.002;4.356;2022-07-12T05:43:47;5.80;;;4.80;;
22034;SDS011;11181;51.002;4.356;2022-07-12T05:46:13;6.40;;;4.53;;
22034;SDS011;11181;51.002;4.356;2022-07-12T05:48:40;5.77;;;5.03;;
22034;SDS011;11181;51.002;4.356;2022-07-12T05:51:07;7.73;;;4.27;;
22034;SDS011;11181;51.002;4.356;2022-07-12T05:53:52;6.90;;;5.37;;
22034;SDS011;11181;51.002;4.356;2022-07-12T05:56:20;8.33;;;5.57;;
22034;SDS011;11181;51.002;4.356;2022-07-12T05:58:47;6.03;;;5.20;;
22034;SDS011;11181;51.002;4.356;2022-07-12T06:01:14;6.07;;;4.97;;
22034;SDS011;11181;51.002;4.356;2022-07-12T06:03:41;4.67;;;4.27;;
22034;SDS011;11181;51.002;4.356;2022-07-12T06:06:08;7.53;;;5.40;;
22034;SDS011;11181;51.002;4.356;2022-07-12T06:08:35;5.57;;;4.37;;
22034;SDS011;11181;51.002;4.356;2022-07-12T06:11:02;6.60;;;5.00;;
22034;SDS011;11181;51.002;4.356;2022-07-12T06:13:30;9.93;;;5.10;;
22034;SDS011;11181;51.002;4.356;2022-07-12T06:15:58;6.63;;;4.87;;
22034;SDS011;11181;51.002;4.356;2022-07-12T06:18:25;8.23;;;5.20;;
22034;SDS011;11181;51.002;4.356;2022-07-12T06:20:54;11.27;;;6.33;;
22034;SDS011;11181;51.002;4.356;2022-07-12T06:23:20;12.57;;;5.97;;
22034;SDS011;11181;51.002;4.356;2022-07-12T06:25:47;7.00;;;5.03;;
22034;SDS011;11181;51.002;4.356;2022-07-12T06:28:14;12.97;;;5.73;;
22034;SDS011;11181;51.002;4.356;2022-07-12T06:30:43;8.90;;;6.43;;
22034;SDS011;11181;51.002;4.356;2022-07-12T06:33:10;6.93;;;5.53;;
22034;SDS011;11181;51.002;4.356;2022-07-12T06:35:37;8.47;;;5.50;;
22034;SDS011;11181;51.002;4.356;2022-07-12T06:38:04;7.77;;;5.53;;
22034;SDS011;11181;51.002;4.356;2022-07-12T06:40:31;5.50;;;5.00;;
22034;SDS011;11181;51.002;4.356;2022-07-12T06:42:58;8.70;;;5.80;;
22034;SDS011;11181;51.002;4.356;2022-07-12T06:45:25;8.53;;;5.80;;
22034;SDS011;11181;51.002;4.356;2022-07-12T06:47:53;5.80;;;5.20;;
22034;SDS011;11181;51.002;4.356;2022-07-12T06:50:20;6.23;;;5.50;;
22034;SDS011;11181;51.002;4.356;2022-07-12T06:52:47;6.30;;;5.37;;
22034;SDS011;11181;51.002;4.356;2022-07-12T06:55:15;9.00;;;6.90;;
22034;SDS011;11181;51.002;4.356;2022-07-12T06:57:42;7.70;;;6.00;;
22034;SDS011;11181;51.002;4.356;2022-07-12T07:00:10;6.53;;;5.73;;
22034;SDS011;11181;51.002;4.356;2022-07-12T07:02:37;6.73;;;5.47;;
22034;SDS011;11181;51.002;4.356;2022-07-12T07:05:07;6.97;;;4.97;;
22034;SDS011;11181;51.002;4.356;2022-07-12T07:07:36;9.97;;;5.97;;
22034;SDS011;11181;51.002;4.356;2022-07-12T07:10:03;6.87;;;5.00;;
22034;SDS011;11181;51.002;4.356;2022-07-12T07:12:30;7.88;;;6.15;;
22034;SDS011;11181;51.002;4.356;2022-07-12T07:14:57;6.97;;;5.43;;
22034;SDS011;11181;51.002;4.356;2022-07-12T07:17:24;7.47;;;6.05;;
22034;SDS011;11181;51.002;4.356;2022-07-12T07:19:51;7.80;;;6.43;;
22034;SDS011;11181;51.002;4.356;2022-07-12T07:22:20;7.85;;;6.05;;
22034;SDS011;11181;51.002;4.356;2022-07-12T07:24:48;7.50;;;6.38;;
22034;SDS011;11181;51.002;4.356;2022-07-12T07:27:15;6.60;;;5.93;;
22034;SDS011;11181;51.002;4.356;2022-07-12T07:29:41;8.23;;;5.97;;
22034;SDS011;11181;51.002;4.356;2022-07-12T07:32:26;8.43;;;6.78;;
22034;SDS011;11181;51.002;4.356;2022-07-12T07:34:53;10.32;;;6.28;;
22034;SDS011;11181;51.002;4.356;2022-07-12T07:37:21;8.02;;;5.63;;
22034;SDS011;11181;51.002;4.356;2022-07-12T07:39:49;8.13;;;6.10;;
22034;SDS011;11181;51.002;4.356;2022-07-12T07:42:16;9.05;;;6.03;;
22034;SDS011;11181;51.002;4.356;2022-07-12T07:44:43;7.50;;;6.35;;
22034;SDS011;11181;51.002;4.356;2022-07-12T07:47:10;6.57;;;5.95;;
22034;SDS011;11181;51.002;4.356;2022-07-12T07:49:37;6.05;;;5.40;;
22034;SDS011;11181;51.002;4.356;2022-07-12T07:52:04;6.80;;;5.57;;
22034;SDS011;11181;51.002;4.356;2022-07-12T07:54:32;6.72;;;6.03;;
22034;SDS011;11181;51.002;4.356;2022-07-12T07:56:59;9.20;;;6.72;;
22034;SDS011;11181;51.002;4.356;2022-07-12T07:59:26;11.43;;;6.03;;
22034;SDS011;11181;51.002;4.356;2022-07-12T08:01:53;6.50;;;5.75;;
22034;SDS011;11181;51.002;4.356;2022-07-12T08:04:20;6.32;;;5.63;;
22034;SDS011;11181;51.002;4.356;2022-07-12T08:06:48;6.20;;;5.60;;
22034;SDS011;11181;51.002;4.356;2022-07-12T08:09:16;5.55;;;4.85;;
22034;SDS011;11181;51.002;4.356;2022-07-12T08:11:44;7.15;;;5.50;;
22034;SDS011;11181;51.002;4.356;2022-07-12T08:14:11;9.13;;;4.93;;
22034;SDS011;11181;51.002;4.356;2022-07-12T08:16:38;7.13;;;5.18;;
22034;SDS011;11181;51.002;4.356;2022-07-12T08:19:05;6.18;;;4.72;;
22034;SDS011;11181;51.002;4.356;2022-07-12T08:21:32;6.10;;;5.47;;
22034;SDS011;11181;51.002;4.356;2022-07-12T08:23:59;5.90;;;5.30;;
22034;SDS011;11181;51.002;4.356;2022-07-12T08:26:26;6.65;;;5.22;;
22034;SDS011;11181;51.002;4.356;2022-07-12T08:28:55;6.22;;;5.18;;
22034;SDS011;11181;51.002;4.356;2022-07-12T08:31:22;5.60;;;4.97;;
22034;SDS011;11181;51.002;4.356;2022-07-12T08:33:49;8.88;;;5.53;;
22034;SDS011;11181;51.002;4.356;2022-07-12T08:36:19;7.32;;;4.82;;
22034;SDS011;11181;51.002;4.356;2022-07-12T08:38:46;7.13;;;4.90;;
22034;SDS011;11181;51.002;4.356;2022-07-12T08:41:13;6.22;;;4.68;;
22034;SDS011;11181;51.002;4.356;2022-07-12T08:43:40;8.25;;;5.40;;
22034;SDS011;11181;51.002;4.356;2022-07-12T08:46:10;5.72;;;5.22;;
22034;SDS011;11181;51.002;4.356;2022-07-12T08:48:38;8.98;;;4.80;;
22034;SDS011;11181;51.002;4.356;2022-07-12T08:51:07;5.53;;;4.93;;
22034;SDS011;11181;51.002;4.356;2022-07-12T08:53:34;6.05;;;4.68;;
22034;SDS011;11181;51.002;4.356;2022-07-12T08:56:02;4.82;;;4.38;;
22034;SDS011;11181;51.002;4.356;2022-07-12T08:58:30;5.43;;;4.38;;
22034;SDS011;11181;51.002;4.356;2022-07-12T09:00:57;8.27;;;4.60;;
22034;SDS011;11181;51.002;4.356;2022-07-12T09:03:26;5.22;;;4.00;;
22034;SDS011;11181;51.002;4.356;2022-07-12T09:05:54;8.15;;;4.35;;
22034;SDS011;11181;51.002;4.356;2022-07-12T09:08:28;4.20;;;3.80;;
22034;SDS011;11181;51.002;4.356;2022-07-12T09:10:58;5.22;;;4.55;;
22034;SDS011;11181;51.002;4.356;2022-07-12T09:13:45;5.18;;;4.00;;
22034;SDS011;11181;51.002;4.356;2022-07-12T09:16:17;3.42;;;3.20;;
22034;SDS011;11181;51.002;4.356;2022-07-12T09:18:49;4.38;;;3.95;;
22034;SDS011;11181;51.002;4.356;2022-07-12T09:21:23;4.53;;;4.13;;
22034;SDS011;11181;51.002;4.356;2022-07-12T09:23:51;3.83;;;3.53;;
22034;SDS011;11181;51.002;4.356;2022-07-12T09:26:22;4.75;;;3.60;;
22034;SDS011;11181;51.002;4.356;2022-07-12T09:28:50;5.00;;;4.18;;
22034;SDS011;11181;51.002;4.356;2022-07-12T09:31:18;4.35;;;3.92;;
22034;SDS011;11181;51.002;4.356;2022-07-12T09:34:01;3.60;;;3.30;;
22034;SDS011;11181;51.002;4.356;2022-07-12T09:36:55;4.00;;;3.63;;
22034;SDS011;11181;51.002;4.356;2022-07-12T09:39:23;6.38;;;3.80;;
22034;SDS011;11181;51.002;4.356;2022-07-12T09:41:52;5.93;;;3.83;;
22034;SDS011;11181;51.002;4.356;2022-07-12T09:44:21;4.03;;;3.35;;
22034;SDS011;11181;51.002;4.356;2022-07-12T09:46:50;6.72;;;3.40;;
22034;SDS011;11181;51.002;4.356;2022-07-12T09:49:18;3.70;;;3.40;;
22034;SDS011;11181;51.002;4.356;2022-07-12T09:51:46;3.28;;;2.97;;
22034;SDS011;11181;51.002;4.356;2022-07-12T09:54:14;3.55;;;3.25;;
22034;SDS011;11181;51.002;4.356;2022-07-12T09:56:52;3.95;;;3.38;;
22034;SDS011;11181;51.002;4.356;2022-07-12T09:59:20;5.03;;;3.45;;
22034;SDS011;11181;51.002;4.356;2022-07-12T10:01:50;3.70;;;3.10;;
22034;SDS011;11181;51.002;4.356;2022-07-12T10:04:22;4.05;;;3.30;;
22034;SDS011;11181;51.002;4.356;2022-07-12T10:06:49;3.47;;;3.17;;
22034;SDS011;11181;51.002;4.356;2022-07-12T10:09:17;3.10;;;2.80;;
22034;SDS011;11181;51.002;4.356;2022-07-12T10:11:44;3.40;;;3.15;;
22034;SDS011;11181;51.002;4.356;2022-07-12T10:14:12;2.95;;;2.75;;
22034;SDS011;11181;51.002;4.356;2022-07-12T10:16:41;3.42;;;3.13;;
22034;SDS011;11181;51.002;4.356;2022-07-12T10:19:26;4.20;;;2.90;;
22034;SDS011;11181;51.002;4.356;2022-07-12T10:21:55;3.25;;;2.90;;
22034;SDS011;11181;51.002;4.356;2022-07-12T10:30:17;4.38;;;2.88;;
22034;SDS011;11181;51.002;4.356;2022-07-12T10:32:46;2.83;;;2.58;;
22034;SDS011;11181;51.002;4.356;2022-07-12T10:35:19;4.47;;;3.03;;
22034;SDS011;11181;51.002;4.356;2022-07-12T10:40:44;3.28;;;3.08;;
22034;SDS011;11181;51.002;4.356;2022-07-12T10:43:16;6.63;;;3.40;;
22034;SDS011;11181;51.002;4.356;2022-07-12T10:45:48;3.92;;;2.63;;
22034;SDS011;11181;51.002;4.356;2022-07-12T10:48:19;3.15;;;2.85;;
22034;SDS011;11181;51.002;4.356;2022-07-12T10:50:53;3.00;;;2.65;;
22034;SDS011;11181;51.002;4.356;2022-07-12T10:53:23;4.15;;;2.60;;
22034;SDS011;11181;51.002;4.356;2022-07-12T10:58:35;3.75;;;3.42;;
22034;SDS011;11181;51.002;4.356;2022-07-12T11:01:04;3.40;;;3.10;;
22034;SDS011;11181;51.002;4.356;2022-07-12T11:03:37;2.60;;;2.40;;
22034;SDS011;11181;51.002;4.356;2022-07-12T11:06:07;2.92;;;2.50;;
22034;SDS011;11181;51.002;4.356;2022-07-12T11:08:54;3.05;;;2.75;;
22034;SDS011;11181;51.002;4.356;2022-07-12T11:11:25;2.63;;;2.42;;
22034;SDS011;11181;51.002;4.356;2022-07-12T11:13:53;3.10;;;2.80;;
22034;SDS011;11181;51.002;4.356;2022-07-12T11:16:21;3.20;;;2.40;;
22034;SDS011;11181;51.002;4.356;2022-07-12T11:18:48;2.70;;;2.50;;
22034;SDS011;11181;51.002;4.356;2022-07-12T11:21:17;3.92;;;3.13;;
22034;SDS011;11181;51.002;4.356;2022-07-12T11:23:44;4.35;;;2.88;;
22034;SDS011;11181;51.002;4.356;2022-07-12T11:26:12;3.72;;;2.92;;
22034;SDS011;11181;51.002;4.356;2022-07-12T11:28:40;3.35;;;2.45;;
22034;SDS011;11181;51.002;4.356;2022-07-12T11:31:09;3.15;;;2.20;;
22034;SDS011;11181;51.002;4.356;2022-07-12T11:33:37;5.72;;;2.33;;
22034;SDS011;11181;51.002;4.356;2022-07-12T11:36:06;4.85;;;2.03;;
22034;SDS011;11181;51.002;4.356;2022-07-12T11:38:36;2.08;;;1.98;;
22034;SDS011;11181;51.002;4.356;2022-07-12T11:41:05;4.75;;;2.40;;
22034;SDS011;11181;51.002;4.356;2022-07-12T11:43:33;3.00;;;2.45;;
22034;SDS011;11181;51.002;4.356;2022-07-12T11:46:01;3.83;;;2.75;;
22034;SDS011;11181;51.002;4.356;2022-07-12T11:48:29;5.45;;;2.40;;
22034;SDS011;11181;51.002;4.356;2022-07-12T11:51:00;3.03;;;1.95;;
22034;SDS011;11181;51.002;4.356;2022-07-12T11:53:28;2.72;;;2.53;;
22034;SDS011;11181;51.002;4.356;2022-07-12T11:55:58;2.50;;;2.20;;
22034;SDS011;11181;51.002;4.356;2022-07-12T11:58:27;1.92;;;1.83;;
22034;SDS011;11181;51.002;4.356;2022-07-12T12:00:55;3.10;;;2.20;;
22034;SDS011;11181;51.002;4.356;2022-07-12T12:03:22;2.88;;;2.67;;
22034;SDS011;11181;51.002;4.356;2022-07-12T12:05:50;3.10;;;2.10;;
22034;SDS011;11181;51.002;4.356;2022-07-12T12:08:18;3.08;;;2.38;;
22034;SDS011;11181;51.002;4.356;2022-07-12T12:10:52;2.60;;;2.35;;
22034;SDS011;11181;51.002;4.356;2022-07-12T12:13:22;2.75;;;2.50;;
22034;SDS011;11181;51.002;4.356;2022-07-12T12:15:50;3.75;;;2.42;;
22034;SDS011;11181;51.002;4.356;2022-07-12T12:18:27;2.85;;;2.63;;
22034;SDS011;11181;51.002;4.356;2022-07-12T12:20:58;2.95;;;2.58;;
22034;SDS011;11181;51.002;4.356;2022-07-12T12:23:26;2.63;;;2.42;;
22034;SDS011;11181;51.002;4.356;2022-07-12T12:26:08;4.90;;;2.83;;
22034;SDS011;11181;51.002;4.356;2022-07-12T12:28:47;5.32;;;2.78;;
22034;SDS011;11181;51.002;4.356;2022-07-12T12:31:16;2.70;;;2.47;;
22034;SDS011;11181;51.002;4.356;2022-07-12T12:33:45;3.10;;;2.80;;
22034;SDS011;11181;51.002;4.356;2022-07-12T12:36:15;2.20;;;2.00;;
22034;SDS011;11181;51.002;4.356;2022-07-12T12:38:44;2.55;;;2.30;;
22034;SDS011;11181;51.002;4.356;2022-07-12T12:41:12;4.22;;;2.92;;
22034;SDS011;11181;51.002;4.356;2022-07-12T12:43:40;4.13;;;2.42;;
22034;SDS011;11181;51.002;4.356;2022-07-12T12:46:09;3.03;;;2.72;;
22034;SDS011;11181;51.002;4.356;2022-07-12T12:48:36;3.60;;;2.67;;
22034;SDS011;11181;51.002;4.356;2022-07-12T12:51:04;3.90;;;3.03;;
22034;SDS011;11181;51.002;4.356;2022-07-12T12:53:32;4.78;;;3.05;;
22034;SDS011;11181;51.002;4.356;2022-07-12T12:56:04;3.60;;;2.92;;
22034;SDS011;11181;51.002;4.356;2022-07-12T12:58:33;2.90;;;2.70;;
22034;SDS011;11181;51.002;4.356;2022-07-12T13:01:01;3.65;;;3.35;;
22034;SDS011;11181;51.002;4.356;2022-07-12T13:03:30;3.20;;;3.00;;
22034;SDS011;11181;51.002;4.356;2022-07-12T13:05:58;4.20;;;3.10;;
22034;SDS011;11181;51.002;4.356;2022-07-12T13:08:26;3.20;;;2.90;;
22034;SDS011;11181;51.002;4.356;2022-07-12T13:10:53;3.72;;;3.00;;
22034;SDS011;11181;51.002;4.356;2022-07-12T13:13:38;4.43;;;3.13;;
22034;SDS011;11181;51.002;4.356;2022-07-12T13:16:05;3.25;;;2.95;;
22034;SDS011;11181;51.002;4.356;2022-07-12T13:18:34;3.17;;;2.97;;
22034;SDS011;11181;51.002;4.356;2022-07-12T13:21:01;4.32;;;3.15;;
22034;SDS011;11181;51.002;4.356;2022-07-12T13:23:28;3.90;;;3.13;;
22034;SDS011;11181;51.002;4.356;2022-07-12T13:25:55;2.67;;;2.47;;
22034;SDS011;11181;51.002;4.356;2022-07-12T13:28:22;5.85;;;3.10;;
22034;SDS011;11181;51.002;4.356;2022-07-12T13:30:49;2.95;;;2.55;;
22034;SDS011;11181;51.002;4.356;2022-07-12T13:33:19;4.75;;;3.97;;
22034;SDS011;11181;51.002;4.356;2022-07-12T13:35:48;4.05;;;3.22;;
22034;SDS011;11181;51.002;4.356;2022-07-12T13:38:15;3.55;;;3.20;;
22034;SDS011;11181;51.002;4.356;2022-07-12T13:40:42;3.38;;;3.08;;
22034;SDS011;11181;51.002;4.356;2022-07-12T13:43:09;3.45;;;2.83;;
22034;SDS011;11181;51.002;4.356;2022-07-12T13:45:36;6.38;;;2.97;;
22034;SDS011;11181;51.002;4.356;2022-07-12T13:48:04;3.40;;;3.10;;
22034;SDS011;11181;51.002;4.356;2022-07-12T13:50:31;3.33;;;3.03;;
22034;SDS011;11181;51.002;4.356;2022-07-12T13:52:59;3.88;;;3.42;;
22034;SDS011;11181;51.002;4.356;2022-07-12T13:55:26;3.92;;;3.25;;
22034;SDS011;11181;51.002;4.356;2022-07-12T13:57:55;5.93;;;3.25;;
22034;SDS011;11181;51.002;4.356;2022-07-12T14:00:22;3.67;;;2.97;;
22034;SDS011;11181;51.002;4.356;2022-07-12T14:02:49;3.75;;;3.45;;
22034;SDS011;11181;51.002;4.356;2022-07-12T14:05:17;4.80;;;3.22;;
22034;SDS011;11181;51.002;4.356;2022-07-12T14:07:45;2.97;;;2.67;;
22034;SDS011;11181;51.002;4.356;2022-07-12T14:10:14;3.55;;;3.10;;
22034;SDS011;11181;51.002;4.356;2022-07-12T14:12:41;3.45;;;2.78;;
22034;SDS011;11181;51.002;4.356;2022-07-12T14:15:09;3.75;;;2.72;;
22034;SDS011;11181;51.002;4.356;2022-07-12T14:18:01;7.03;;;2.60;;
22034;SDS011;11181;51.002;4.356;2022-07-12T14:20:31;3.72;;;2.95;;
22034;SDS011;11181;51.002;4.356;2022-07-12T14:22:58;3.05;;;2.85;;
22034;SDS011;11181;51.002;4.356;2022-07-12T14:25:27;3.25;;;2.90;;
22034;SDS011;11181;51.002;4.356;2022-07-12T14:27:54;3.35;;;3.05;;
22034;SDS011;11181;51.002;4.356;2022-07-12T14:30:21;2.95;;;2.55;;
22034;SDS011;11181;51.002;4.356;2022-07-12T14:32:49;3.20;;;2.63;;
22034;SDS011;11181;51.002;4.356;2022-07-12T14:35:16;2.88;;;2.22;;
22034;SDS011;11181;51.002;4.356;2022-07-12T14:37:43;2.25;;;2.00;;
22034;SDS011;11181;51.002;4.356;2022-07-12T14:40:10;2.85;;;1.98;;
22034;SDS011;11181;51.002;4.356;2022-07-12T14:42:39;3.65;;;2.55;;
22034;SDS011;11181;51.002;4.356;2022-07-12T14:45:07;2.40;;;2.20;;
22034;SDS011;11181;51.002;4.356;2022-07-12T14:47:34;2.33;;;2.13;;
22034;SDS011;11181;51.002;4.356;2022-07-12T14:50:01;1.70;;;1.60;;
22034;SDS011;11181;51.002;4.356;2022-07-12T14:52:30;2.22;;;2.03;;
22034;SDS011;11181;51.002;4.356;2022-07-12T14:54:57;1.73;;;1.63;;
22034;SDS011;11181;51.002;4.356;2022-07-12T14:57:24;2.10;;;1.90;;
22034;SDS011;11181;51.002;4.356;2022-07-12T14:59:53;2.08;;;1.58;;
22034;SDS011;11181;51.002;4.356;2022-07-12T15:02:20;2.83;;;1.70;;
22034;SDS011;11181;51.002;4.356;2022-07-12T15:04:47;2.83;;;2.08;;
22034;SDS011;11181;51.002;4.356;2022-07-12T15:07:14;2.25;;;1.38;;